Bayaguana, Dominican Republic

7:23 AM AST on September 30, 2014 (GMT -0400)
Bocaina | Change Station
CLOSE
Current Station
Personal Weather Station
Location: Boca Chica, SANTO DOMINGO
Elevation: 131 ft
Nearby Weather Stations

Elev 131 ft 18.45 °N, 69.56 °W | Updated 4 minutes ago

Mostly Cloudy
Mostly Cloudy
76.5 °F
Feels Like 77 °F
N
0.0
Wind Variable Wind from East
Gusts 1.0 mph

Today
High -- | Low -- °F
--% Chance of Precip.
Yesterday
High -- | Low -- °F
Precip. -- in
6:28 AM 6:27 PM
Waxing Crescent, 36% visible
Pressure 29.95 in
Visibility 6.2 miles
Clouds Few 1800 ft
Few 1800 ft
Mostly Cloudy 30000 ft
Heat Index 77 °F
Dew Point 74 °F
Humidity 91%
Rainfall 0.00 in
Snow Depth Not available.
UV 0 out of 12
Pollen Not available.
Air Quality Not available.
Flu Activity Not available.
METAR MDLR 301100Z 00000KT 9999 FEW018CB FEW018 BKN300 24/23 Q1014 CB/W

More Conditions Fewer Conditions

Pressure 29.95 in
Visibility 6.2 miles
Clouds Few 1800 ft
Few 1800 ft
Mostly Cloudy 30000 ft
Heat Index 77 °F
Dew Point 74 °F
Humidity 91%
Rainfall 0.00 in
Snow Depth Not available.
UV 0 out of 12
Pollen Not available.
Air Quality Not available.
Flu Activity Not available.
METAR MDLR 301100Z 00000KT 9999 FEW018CB FEW018 BKN300 24/23 Q1014 CB/W

More Conditions Fewer Conditions

10-Day Weather Forecast

Almanac

Astronomy

Sep. 30, 2014 Rise Set
Actual Time 6:28 AM AST 6:27 PM AST
Civil Twilight 6:07 AM AST 6:49 PM AST
Nautical Twilight 5:41 AM AST 7:14 PM AST
Astronomical Twilight 5:16 AM AST 7:40 PM AST
Moon 11:57 AM AST 11:30 PM AST
Length of Visible Light 12h 42m
Length of Day
11h 58m
Tomorrow will be 1m 3s shorter.
Waxing Crescent, 36% of the Moon is Illuminated
Today
Waxing Crescent
Oct 1
First Quarter
Oct 8
Full
Oct 15
Last Quarter
Oct 23
New

Community

WunderPhotos

Upload Photos

1,757,617 photos uploaded!

WunderBlogs® & News

Nearby

Snow Depth

Not available.

Earthquake Activity

City Distance Mag. Time & Date
No recent earthquake activity has been reported nearby.
Minimum magnitude displayed is 2.5.

Coastal Water Temperatures

Place Temperature
No Stations Reporting

Nearby Weather Stations